createdAt,value
2018-08-03T00:03:47.825Z,1.83
2018-08-03T00:08:51.314Z,1.97
2018-08-03T00:13:54.594Z,1.70
2018-08-03T00:18:57.963Z,2.00
2018-08-03T00:24:01.290Z,1.90
2018-08-03T00:29:04.578Z,2.00
2018-08-03T00:34:07.883Z,1.77
2018-08-03T00:39:11.727Z,2.00
2018-08-03T00:44:15.071Z,1.67
2018-08-03T00:49:18.357Z,1.90
2018-08-03T00:54:21.705Z,1.70
2018-08-03T00:59:25.027Z,2.00
2018-08-03T01:04:28.335Z,1.90
2018-08-03T01:09:31.699Z,2.10
2018-08-03T01:14:35.127Z,1.80
2018-08-03T01:19:38.422Z,2.20
2018-08-03T01:24:41.842Z,2.33
2018-08-03T01:29:45.089Z,2.33
2018-08-03T01:34:48.331Z,2.23
2018-08-03T01:39:51.991Z,2.30
2018-08-03T01:44:55.234Z,2.13
2018-08-03T01:49:58.526Z,2.60
2018-08-03T01:55:01.836Z,2.57
2018-08-03T02:00:05.702Z,1.90
2018-08-03T02:05:08.978Z,2.50
2018-08-03T02:10:12.334Z,2.20
2018-08-03T02:15:15.609Z,2.50
2018-08-03T02:20:18.897Z,2.40
2018-08-03T02:25:22.175Z,2.93
2018-08-03T02:30:25.421Z,2.97
2018-08-03T02:35:28.686Z,3.10
2018-08-03T02:40:31.947Z,2.87
2018-08-03T02:45:35.258Z,2.90
2018-08-03T02:50:38.538Z,3.43
2018-08-03T02:55:41.901Z,3.20
2018-08-03T03:00:45.256Z,3.30
2018-08-03T03:05:48.502Z,2.93
2018-08-03T03:10:51.771Z,2.80
2018-08-03T03:15:55.044Z,3.30
2018-08-03T03:20:58.315Z,3.30
2018-08-03T03:26:01.588Z,3.83
2018-08-03T03:31:04.874Z,3.77
2018-08-03T03:36:08.134Z,3.60
2018-08-03T03:41:11.422Z,3.77
2018-08-03T03:46:14.719Z,3.97
2018-08-03T03:51:18.023Z,3.70
2018-08-03T03:56:21.297Z,3.93
2018-08-03T04:01:24.656Z,4.23
2018-08-03T04:06:27.900Z,4.80
2018-08-03T04:11:31.213Z,4.20
2018-08-03T04:16:34.795Z,4.37
2018-08-03T04:21:38.031Z,4.07
2018-08-03T04:26:41.409Z,4.67
2018-08-03T04:31:44.706Z,4.73
2018-08-03T04:36:47.955Z,4.87
2018-08-03T04:41:51.270Z,4.23
2018-08-03T04:46:54.534Z,4.70
2018-08-03T04:51:57.807Z,4.80
2018-08-03T04:57:01.084Z,4.90
2018-08-03T05:02:04.387Z,5.57
2018-08-03T05:07:07.862Z,4.43
2018-08-03T05:12:11.174Z,6.03
2018-08-03T05:17:14.379Z,5.70
2018-08-03T05:22:17.630Z,6.00
2018-08-03T05:27:20.999Z,6.13
2018-08-03T05:32:24.251Z,6.07
2018-08-03T05:37:27.650Z,6.47
2018-08-03T05:42:30.983Z,6.70
2018-08-03T05:47:34.246Z,6.67
2018-08-03T05:52:37.521Z,7.23
2018-08-03T05:57:40.973Z,6.63
2018-08-03T06:02:44.311Z,7.40
2018-08-03T06:07:47.696Z,7.23
2018-08-03T06:12:50.964Z,6.80
2018-08-03T06:17:54.223Z,6.97
2018-08-03T06:22:57.531Z,6.67
2018-08-03T06:28:00.826Z,6.77
2018-08-03T06:33:04.139Z,6.90
2018-08-03T06:38:07.445Z,6.27
2018-08-03T06:43:10.937Z,7.00
2018-08-03T06:48:14.278Z,6.87
2018-08-03T06:53:17.567Z,6.60
2018-08-03T06:58:20.885Z,6.80
2018-08-03T07:03:24.207Z,7.30
2018-08-03T07:08:27.548Z,7.43
2018-08-03T07:13:30.861Z,7.07
2018-08-03T07:18:34.161Z,6.47
2018-08-03T07:23:37.446Z,6.90
2018-08-03T07:28:40.739Z,6.90
2018-08-03T07:33:44.475Z,6.93
2018-08-03T07:38:48.591Z,6.57
2018-08-03T07:43:51.987Z,7.03
2018-08-03T07:48:55.241Z,7.23
2018-08-03T07:53:58.503Z,7.43
2018-08-03T07:59:02.075Z,6.80
2018-08-03T08:04:07.272Z,6.93
2018-08-03T08:09:11.719Z,7.57
2018-08-03T08:14:14.735Z,6.80
2018-08-03T08:19:18.809Z,8.73
2018-08-03T08:24:22.185Z,7.63
2018-08-03T08:29:25.439Z,8.00
2018-08-03T08:34:28.750Z,8.80
2018-08-03T08:39:32.098Z,7.50
2018-08-03T08:44:35.459Z,7.83
2018-08-03T08:49:38.716Z,7.60
2018-08-03T08:54:42.000Z,7.60
2018-08-03T08:59:45.664Z,8.03
2018-08-03T09:04:48.861Z,7.63
2018-08-03T09:09:52.359Z,8.10
2018-08-03T09:14:55.726Z,7.80
2018-08-03T09:19:58.982Z,8.07
2018-08-03T09:25:02.423Z,8.53
2018-08-03T09:30:07.566Z,8.47
2018-08-03T09:35:11.068Z,6.60
2018-08-03T09:40:14.418Z,6.63
2018-08-03T09:45:17.738Z,7.03
2018-08-03T09:50:21.017Z,4.70
2018-08-03T09:55:24.340Z,5.10
2018-08-03T10:00:33.989Z,4.67
2018-08-03T10:05:37.254Z,3.73
2018-08-03T10:10:40.504Z,4.23
2018-08-03T10:15:44.253Z,3.70
2018-08-03T10:20:50.603Z,4.50
2018-08-03T10:25:53.855Z,3.50
2018-08-03T10:30:57.136Z,3.63
2018-08-03T10:36:01.224Z,3.60
2018-08-03T10:41:04.508Z,3.80
2018-08-03T10:46:10.719Z,3.43
2018-08-03T10:51:14.085Z,3.87
2018-08-03T10:56:17.326Z,3.77
2018-08-03T11:01:20.732Z,3.57
2018-08-03T11:06:24.027Z,3.73
2018-08-03T11:11:27.344Z,3.70
2018-08-03T11:16:30.639Z,4.30
2018-08-03T11:21:33.927Z,3.40
2018-08-03T11:26:37.176Z,3.70
2018-08-03T11:31:40.463Z,3.47
2018-08-03T11:36:43.730Z,3.53
2018-08-03T11:41:47.052Z,3.50
2018-08-03T11:46:50.779Z,3.93
2018-08-03T11:51:54.134Z,3.73
2018-08-03T11:56:57.401Z,3.50
2018-08-03T12:02:00.790Z,3.37
2018-08-03T12:07:03.967Z,3.37
2018-08-03T12:12:10.422Z,4.03
2018-08-03T12:17:13.674Z,4.00
2018-08-03T12:22:17.147Z,3.40
2018-08-03T12:27:20.868Z,4.07
2018-08-03T12:32:27.161Z,3.50
2018-08-03T12:37:30.435Z,3.83
2018-08-03T12:42:33.687Z,4.00
2018-08-03T12:47:36.951Z,4.10
2018-08-03T12:52:40.280Z,3.33
2018-08-03T12:57:43.516Z,3.83
2018-08-03T13:02:48.067Z,3.27
2018-08-03T13:07:52.751Z,3.30
2018-08-03T13:12:55.982Z,4.00
2018-08-03T13:17:59.437Z,4.17
2018-08-03T13:23:04.766Z,3.87
2018-08-03T13:28:08.059Z,3.83
2018-08-03T13:33:11.415Z,3.60
2018-08-03T13:38:14.609Z,4.00
2018-08-03T13:43:17.931Z,3.70
2018-08-03T13:48:21.259Z,3.30
2018-08-03T13:53:24.740Z,3.80
2018-08-03T13:58:28.026Z,3.23
2018-08-03T14:03:31.331Z,3.20
2018-08-03T14:08:34.723Z,3.67
2018-08-03T14:13:37.979Z,2.97
2018-08-03T14:18:41.710Z,3.17
2018-08-03T14:23:44.999Z,3.10
2018-08-03T14:28:48.042Z,2.87
2018-08-03T14:33:51.351Z,3.20
2018-08-03T14:38:54.643Z,3.40
2018-08-03T14:43:57.994Z,3.40
2018-08-03T14:49:01.323Z,3.57
2018-08-03T14:54:04.712Z,3.40
2018-08-03T14:59:08.103Z,3.00
2018-08-03T15:04:11.369Z,3.13
2018-08-03T15:09:14.628Z,3.37
2018-08-03T15:14:17.891Z,3.37
2018-08-03T15:19:21.445Z,3.57
2018-08-03T15:24:24.822Z,3.27
2018-08-03T15:29:28.082Z,2.87
2018-08-03T15:34:31.559Z,3.33
2018-08-03T15:39:34.816Z,3.10
2018-08-03T15:44:38.088Z,3.10
2018-08-03T15:49:41.383Z,3.40
2018-08-03T15:54:44.659Z,3.30
2018-08-03T15:59:47.915Z,3.17
2018-08-03T16:04:51.609Z,3.30
2018-08-03T16:10:01.666Z,3.53
2018-08-03T16:15:05.482Z,3.20
2018-08-03T16:20:08.944Z,3.20
2018-08-03T16:25:12.186Z,3.70
2018-08-03T16:30:15.719Z,3.43
2018-08-03T16:35:19.082Z,2.97
2018-08-03T16:40:22.682Z,3.40
2018-08-03T16:45:25.990Z,3.10
2018-08-03T16:50:29.305Z,3.13
2018-08-03T16:55:32.570Z,3.60
2018-08-03T17:00:35.814Z,3.37
2018-08-03T17:05:39.129Z,3.50
2018-08-03T17:10:42.463Z,3.10
2018-08-03T17:15:45.721Z,3.13
2018-08-03T17:20:48.983Z,2.97
2018-08-03T17:25:52.327Z,3.27
2018-08-03T17:30:55.572Z,3.07
2018-08-03T17:35:58.864Z,3.03
2018-08-03T17:41:02.145Z,3.03
2018-08-03T17:46:05.930Z,3.13
2018-08-03T17:51:09.215Z,3.00
2018-08-03T17:56:12.502Z,2.80
2018-08-03T18:01:15.772Z,2.70
2018-08-03T18:06:18.763Z,3.70
2018-08-03T18:11:22.349Z,3.50
2018-08-03T18:16:25.612Z,4.03
2018-08-03T18:21:28.974Z,3.97
2018-08-03T18:26:32.212Z,3.40
2018-08-03T18:31:35.510Z,3.50
2018-08-03T18:36:38.836Z,3.17
2018-08-03T18:41:42.107Z,3.30
2018-08-03T18:46:45.463Z,3.30
2018-08-03T18:51:48.876Z,3.60
2018-08-03T18:56:52.273Z,3.47
2018-08-03T19:01:55.540Z,3.50
2018-08-03T19:06:59.051Z,3.37
2018-08-03T19:12:02.298Z,3.37
2018-08-03T19:17:05.428Z,2.93
2018-08-03T19:22:08.727Z,3.30
2018-08-03T19:32:21.728Z,4.03
2018-08-03T19:37:25.117Z,3.17
2018-08-03T19:42:28.372Z,3.37
2018-08-03T19:47:31.689Z,3.20
2018-08-03T19:52:34.957Z,3.53
2018-08-03T19:57:38.444Z,2.97
2018-08-03T20:02:41.750Z,2.90
2018-08-03T20:07:45.062Z,2.90
2018-08-03T20:12:49.123Z,2.87
2018-08-03T20:17:52.354Z,3.27
2018-08-03T20:22:55.639Z,3.13
2018-08-03T20:27:58.876Z,2.60
2018-08-03T20:33:02.142Z,2.87
2018-08-03T20:38:05.971Z,2.70
2018-08-03T20:43:09.345Z,2.97
2018-08-03T20:48:12.733Z,2.70
2018-08-03T20:53:16.055Z,2.53
2018-08-03T20:58:19.312Z,2.87
2018-08-03T21:03:22.602Z,3.00
2018-08-03T21:08:25.971Z,2.70
2018-08-03T21:13:29.305Z,2.60
2018-08-03T21:18:32.589Z,2.93
2018-08-03T21:23:35.924Z,3.30
2018-08-03T21:28:39.192Z,2.73
2018-08-03T21:33:42.485Z,2.80
2018-08-03T21:38:45.912Z,2.57
2018-08-03T21:43:49.247Z,3.00
2018-08-03T21:48:52.499Z,2.57
2018-08-03T21:53:55.757Z,2.90
2018-08-03T21:58:59.037Z,2.60
2018-08-03T22:04:02.278Z,2.47
2018-08-03T22:09:07.705Z,2.30
2018-08-03T22:14:10.987Z,2.57
2018-08-03T22:19:14.341Z,2.70
2018-08-03T22:24:17.645Z,2.30
2018-08-03T22:29:21.078Z,2.50
2018-08-03T22:34:24.468Z,2.33
2018-08-03T22:39:27.816Z,2.00
2018-08-03T22:44:31.118Z,2.20
2018-08-03T22:49:34.373Z,2.43
2018-08-03T22:54:37.656Z,2.20
2018-08-03T22:59:40.882Z,1.97
2018-08-03T23:04:44.189Z,2.20
2018-08-03T23:09:47.462Z,1.90
2018-08-03T23:14:50.710Z,2.00
2018-08-03T23:19:53.949Z,2.10
2018-08-03T23:24:57.255Z,2.20
2018-08-03T23:30:00.510Z,1.97
2018-08-03T23:35:03.770Z,1.90
2018-08-03T23:40:07.206Z,1.93
2018-08-03T23:45:10.467Z,1.80
2018-08-03T23:50:18.690Z,1.97
2018-08-03T23:55:22.027Z,2.03
